Time;durP1;ratioP1;P1;durP2;ratioP2;P2;SDS_P1;SDS_P2;PMS_P1;PMS_P2;Temp;Humidity;BMP_temperature;BMP_pressure;BME280_temperature;BME280_humidity;BME280_pressure;Samples;Min_cycle;Max_cycle;Signal;HPM_P1;HPM_P2
2021/09/13 00:02:07;;;;;;;1999.90;999.90;;;;;;;;;;5013097;28;20025;-81
2021/09/13 00:04:33;;;;;;;1999.90;999.90;;;;;;;;;;5013271;28;20053;-83
2021/09/13 00:06:59;;;;;;;1999.90;999.90;;;;;;;;;;5013229;28;20477;-83
2021/09/13 00:09:25;;;;;;;1999.90;999.90;;;;;;;;;;5012995;28;20034;-82
2021/09/13 00:11:51;;;;;;;1999.90;999.90;;;;;;;;;;5012923;28;20458;-83
2021/09/13 00:14:18;;;;;;;1999.90;999.90;;;;;;;;;;5012839;28;20076;-82
2021/09/13 00:16:44;;;;;;;1999.90;999.90;;;;;;;;;;5012549;28;20057;-82
2021/09/13 00:19:10;;;;;;;1999.90;999.90;;;;;;;;;;5014302;28;20022;-83
2021/09/13 00:21:36;;;;;;;1999.90;999.90;;;;;;;;;;5013030;28;20029;-82
2021/09/13 00:24:02;;;;;;;1999.90;999.90;;;;;;;;;;5012721;28;20132;-83
2021/09/13 00:26:28;;;;;;;1999.90;999.90;;;;;;;;;;5012771;28;20022;-82
2021/09/13 00:28:54;;;;;;;1999.90;999.90;;;;;;;;;;5012757;28;20030;-82
2021/09/13 00:31:20;;;;;;;1999.90;999.90;;;;;;;;;;5012663;28;20026;-80
2021/09/13 00:33:46;;;;;;;1999.90;999.90;;;;;;;;;;5013703;28;20102;-82
2021/09/13 00:36:12;;;;;;;1999.90;999.90;;;;;;;;;;5013454;28;20057;-81
2021/09/13 00:38:38;;;;;;;1999.90;999.90;;;;;;;;;;5017017;28;20524;-81
2021/09/13 00:41:04;;;;;;;1999.90;999.90;;;;;;;;;;5016638;28;20049;-81
2021/09/13 00:43:30;;;;;;;1999.90;999.90;;;;;;;;;;5016494;28;20470;-82
2021/09/13 00:45:57;;;;;;;1999.90;999.90;;;;;;;;;;5016791;28;20385;-81
2021/09/13 00:48:24;;;;;;;1999.90;999.90;;;;;;;;;;5016751;28;20022;-81
2021/09/13 00:50:50;;;;;;;1999.90;999.90;;;;;;;;;;5016512;28;20022;-81
2021/09/13 00:53:16;;;;;;;1999.90;999.90;;;;;;;;;;5016471;28;20030;-83
2021/09/13 00:55:42;;;;;;;1999.90;999.90;;;;;;;;;;5016594;28;20068;-81
2021/09/13 00:58:08;;;;;;;1999.90;999.90;;;;;;;;;;5016415;28;20034;-83
2021/09/13 01:00:35;;;;;;;1999.90;999.90;;;;;;;;;;5016441;28;20160;-83
2021/09/13 01:03:01;;;;;;;1999.90;999.90;;;;;;;;;;5016107;28;20029;-81
2021/09/13 01:05:27;;;;;;;1999.90;999.90;;;;;;;;;;5017397;28;20029;-83
2021/09/13 01:07:53;;;;;;;1999.90;999.90;;;;;;;;;;5016605;28;20080;-82
2021/09/13 01:10:20;;;;;;;1999.90;999.90;;;;;;;;;;5016457;28;20064;-82
2021/09/13 01:12:46;;;;;;;1999.90;999.90;;;;;;;;;;5016000;28;20025;-82
2021/09/13 01:15:12;;;;;;;1999.90;999.90;;;;;;;;;;5016321;28;20064;-83
2021/09/13 01:17:39;;;;;;;1999.90;999.90;;;;;;;;;;5016158;28;20028;-83
2021/09/13 01:20:06;;;;;;;1999.90;999.90;;;;;;;;;;5016005;28;20113;-82
2021/09/13 01:22:32;;;;;;;1999.90;999.90;;;;;;;;;;5015696;28;20030;-82
2021/09/13 01:24:58;;;;;;;1999.90;999.90;;;;;;;;;;5015459;28;20141;-83
2021/09/13 01:27:25;;;;;;;1999.90;999.90;;;;;;;;;;5016003;28;20033;-82
2021/09/13 01:29:51;;;;;;;1999.90;999.90;;;;;;;;;;5015769;28;20037;-81
2021/09/13 01:32:17;;;;;;;1999.90;999.90;;;;;;;;;;5015652;28;20026;-82
2021/09/13 01:34:44;;;;;;;1999.90;999.90;;;;;;;;;;5015695;28;20068;-84
2021/09/13 01:37:10;;;;;;;1999.90;999.90;;;;;;;;;;5015663;28;20093;-81
2021/09/13 01:39:36;;;;;;;1999.90;999.90;;;;;;;;;;5015812;28;20030;-82
2021/09/13 01:42:02;;;;;;;1999.90;999.90;;;;;;;;;;5016766;28;20025;-81
2021/09/13 01:44:28;;;;;;;1999.90;999.90;;;;;;;;;;5015307;28;20393;-83
2021/09/13 01:46:54;;;;;;;1999.90;999.90;;;;;;;;;;5014937;28;20022;-83
2021/09/13 01:49:20;;;;;;;1999.90;999.90;;;;;;;;;;5015202;28;20045;-83
2021/09/13 01:51:46;;;;;;;1999.90;999.90;;;;;;;;;;5015655;28;20018;-83
2021/09/13 01:54:13;;;;;;;1999.90;999.90;;;;;;;;;;5015014;28;20569;-81
2021/09/13 01:56:39;;;;;;;1999.90;999.90;;;;;;;;;;5016474;28;20496;-81
2021/09/13 01:59:05;;;;;;;1999.90;999.90;;;;;;;;;;5016487;28;20084;-84
2021/09/13 02:01:31;;;;;;;1999.90;999.90;;;;;;;;;;5015464;28;20029;-82
2021/09/13 02:03:57;;;;;;;1999.90;999.90;;;;;;;;;;5015049;28;20524;-83
2021/09/13 02:06:23;;;;;;;1999.90;999.90;;;;;;;;;;5015330;28;20493;-84
2021/09/13 02:08:49;;;;;;;1999.90;999.90;;;;;;;;;;5014890;28;20445;-83
2021/09/13 02:11:15;;;;;;;1999.90;999.90;;;;;;;;;;5015385;28;20025;-84
2021/09/13 02:13:41;;;;;;;1999.90;999.90;;;;;;;;;;5016307;28;20029;-83
2021/09/13 02:16:07;;;;;;;1999.90;999.90;;;;;;;;;;5014962;28;20384;-82
2021/09/13 02:18:33;;;;;;;1999.90;999.90;;;;;;;;;;5014900;28;20018;-83
2021/09/13 02:21:00;;;;;;;1999.90;999.90;;;;;;;;;;5015119;28;20053;-83
2021/09/13 02:23:26;;;;;;;1999.90;999.90;;;;;;;;;;5014966;28;20547;-82
2021/09/13 02:25:52;;;;;;;1999.90;999.90;;;;;;;;;;5014841;28;20113;-82
2021/09/13 02:28:18;;;;;;;1999.90;999.90;;;;;;;;;;5014690;28;20049;-83
2021/09/13 02:30:44;;;;;;;1999.90;999.90;;;;;;;;;;5014940;28;20030;-86
2021/09/13 02:33:10;;;;;;;1999.90;999.90;;;;;;;;;;5014504;28;20033;-83
2021/09/13 02:35:36;;;;;;;1999.90;999.90;;;;;;;;;;5014897;28;20053;-83
2021/09/13 02:38:03;;;;;;;1999.90;999.90;;;;;;;;;;5014746;28;20420;-83
2021/09/13 02:40:29;;;;;;;1999.90;999.90;;;;;;;;;;5014830;28;20109;-83
2021/09/13 02:42:55;;;;;;;1999.90;999.90;;;;;;;;;;5014714;28;20026;-83
2021/09/13 02:45:21;;;;;;;1999.90;999.90;;;;;;;;;;5014634;28;20497;-83
2021/09/13 02:47:47;;;;;;;1999.90;999.90;;;;;;;;;;5014406;28;20500;-84
2021/09/13 02:50:13;;;;;;;1999.90;999.90;;;;;;;;;;5014438;28;20034;-82
2021/09/13 02:52:40;;;;;;;1999.90;999.90;;;;;;;;;;5014252;28;20022;-82
2021/09/13 02:55:06;;;;;;;1999.90;999.90;;;;;;;;;;5015661;28;20469;-81
2021/09/13 02:57:32;;;;;;;1999.90;999.90;;;;;;;;;;5015601;28;20022;-84
2021/09/13 02:59:58;;;;;;;1999.90;999.90;;;;;;;;;;5013561;28;20480;-82
2021/09/13 03:02:25;;;;;;;1999.90;999.90;;;;;;;;;;5014419;28;20025;-83
2021/09/13 03:04:51;;;;;;;1999.90;999.90;;;;;;;;;;5014266;28;20358;-82
2021/09/13 03:07:17;;;;;;;1999.90;999.90;;;;;;;;;;5014196;28;20025;-83
2021/09/13 03:09:43;;;;;;;1999.90;999.90;;;;;;;;;;5014068;28;20406;-82
2021/09/13 03:12:09;;;;;;;1999.90;999.90;;;;;;;;;;5014099;28;20381;-84
2021/09/13 03:14:36;;;;;;;1999.90;999.90;;;;;;;;;;5013993;28;20058;-82
2021/09/13 03:17:02;;;;;;;1999.90;999.90;;;;;;;;;;5030599;28;20053;-81
2021/09/13 03:19:28;;;;;;;1999.90;999.90;;;;;;;;;;5034405;28;20416;-83
2021/09/13 03:21:54;;;;;;;1999.90;999.90;;;;;;;;;;5033503;28;20035;-82
2021/09/13 03:24:20;;;;;;;1999.90;999.90;;;;;;;;;;5034808;28;20453;-84
2021/09/13 03:26:46;;;;;;;1999.90;999.90;;;;;;;;;;5033457;28;20543;-83
2021/09/13 03:29:12;;;;;;;1999.90;999.90;;;;;;;;;;5033161;28;20033;-84
2021/09/13 03:31:39;;;;;;;1999.90;999.90;;;;;;;;;;5033468;28;20376;-82
2021/09/13 03:34:06;;;;;;;1999.90;999.90;;;;;;;;;;5033308;28;20029;-83
2021/09/13 03:36:34;;;;;;;1999.90;999.90;;;;;;;;;;5033339;28;20029;-82
2021/09/13 03:39:00;;;;;;;1999.90;999.90;;;;;;;;;;5033385;28;20083;-83
2021/09/13 03:41:26;;;;;;;1999.90;999.90;;;;;;;;;;5033260;28;20025;-84
2021/09/13 03:43:52;;;;;;;1999.90;999.90;;;;;;;;;;5033097;28;20022;-85
2021/09/13 03:46:18;;;;;;;1999.90;999.90;;;;;;;;;;5033254;28;20083;-84
2021/09/13 03:48:44;;;;;;;1999.90;999.90;;;;;;;;;;5033060;28;20033;-85
2021/09/13 03:51:10;;;;;;;1999.90;999.90;;;;;;;;;;5032986;28;20033;-82
2021/09/13 03:53:36;;;;;;;1999.90;999.90;;;;;;;;;;5033410;28;20022;-83
2021/09/13 03:56:02;;;;;;;1999.90;999.90;;;;;;;;;;5033064;28;20484;-83
2021/09/13 03:58:28;;;;;;;1999.90;999.90;;;;;;;;;;5033304;28;20071;-83
2021/09/13 04:00:54;;;;;;;1999.90;999.90;;;;;;;;;;5033341;28;20473;-83
2021/09/13 04:03:25;;;;;;;1999.90;999.90;;;;;;;;;;5033043;28;20053;-84
2021/09/13 04:05:55;;;;;;;1999.90;999.90;;;;;;;;;;5033163;28;20461;-84
2021/09/13 04:11:06;;;;;;;1999.90;999.90;;;;;;;;;;5034067;28;20113;-84
2021/09/13 04:13:32;;;;;;;1999.90;999.90;;;;;;;;;;5032848;28;20017;-84
2021/09/13 04:15:58;;;;;;;1999.90;999.90;;;;;;;;;;5033754;28;20045;-84
2021/09/13 04:18:24;;;;;;;1999.90;999.90;;;;;;;;;;5032569;28;20028;-85
2021/09/13 04:20:50;;;;;;;1999.90;999.90;;;;;;;;;;5033892;28;20373;-83
2021/09/13 04:23:16;;;;;;;1999.90;999.90;;;;;;;;;;5033780;28;20022;-82
2021/09/13 04:25:42;;;;;;;1999.90;999.90;;;;;;;;;;5032612;28;20025;-85
2021/09/13 04:28:08;;;;;;;1999.90;999.90;;;;;;;;;;5032815;28;20400;-85
2021/09/13 04:30:35;;;;;;;1999.90;999.90;;;;;;;;;;5034324;28;20030;-81
2021/09/13 04:33:00;;;;;;;1999.90;999.90;;;;;;;;;;5032443;28;20473;-81
2021/09/13 04:35:27;;;;;;;1999.90;999.90;;;;;;;;;;5033655;28;20036;-83
2021/09/13 04:37:53;;;;;;;1999.90;999.90;;;;;;;;;;5034841;28;20021;-79
2021/09/13 04:40:19;;;;;;;1999.90;999.90;;;;;;;;;;5035260;28;20484;-85
2021/09/13 04:42:45;;;;;;;1999.90;999.90;;;;;;;;;;5032806;28;20461;-82
2021/09/13 04:45:11;;;;;;;1999.90;999.90;;;;;;;;;;5032693;28;20063;-83
2021/09/13 04:47:37;;;;;;;1999.90;999.90;;;;;;;;;;5035939;28;20152;-83
2021/09/13 04:50:03;;;;;;;1999.90;999.90;;;;;;;;;;5032461;28;20038;-83
2021/09/13 04:52:29;;;;;;;1999.90;999.90;;;;;;;;;;5032225;28;20079;-81
2021/09/13 04:54:55;;;;;;;1999.90;999.90;;;;;;;;;;5032038;28;20032;-82
2021/09/13 04:57:21;;;;;;;1999.90;999.90;;;;;;;;;;5032238;28;20461;-82
2021/09/13 04:59:47;;;;;;;1999.90;999.90;;;;;;;;;;5031853;28;20087;-82
2021/09/13 05:02:13;;;;;;;1999.90;999.90;;;;;;;;;;5031922;28;20030;-82
2021/09/13 05:04:39;;;;;;;1999.90;999.90;;;;;;;;;;5032073;28;20033;-85
2021/09/13 05:07:06;;;;;;;1999.90;999.90;;;;;;;;;;5032006;28;20026;-84
2021/09/13 05:09:32;;;;;;;1999.90;999.90;;;;;;;;;;5032027;28;20054;-84
2021/09/13 05:11:58;;;;;;;1999.90;999.90;;;;;;;;;;5032192;28;20021;-82
2021/09/13 05:14:24;;;;;;;1999.90;999.90;;;;;;;;;;5032082;28;20045;-82
2021/09/13 05:16:51;;;;;;;1999.90;999.90;;;;;;;;;;5031926;28;20045;-82
2021/09/13 05:19:17;;;;;;;1999.90;999.90;;;;;;;;;;5032308;28;20034;-83
2021/09/13 05:21:43;;;;;;;1999.90;999.90;;;;;;;;;;5032434;28;20025;-81
2021/09/13 05:24:10;;;;;;;1999.90;999.90;;;;;;;;;;5035572;28;20103;-83
2021/09/13 05:26:36;;;;;;;1999.90;999.90;;;;;;;;;;5035934;28;20362;-85
2021/09/13 05:29:02;;;;;;;1999.90;999.90;;;;;;;;;;5035569;28;20040;-84
2021/09/13 05:31:28;;;;;;;1999.90;999.90;;;;;;;;;;5035908;28;20026;-82
2021/09/13 05:33:54;;;;;;;1999.90;999.90;;;;;;;;;;5035824;28;20428;-81
2021/09/13 05:36:20;;;;;;;1999.90;999.90;;;;;;;;;;5035845;28;20476;-83
2021/09/13 05:38:46;;;;;;;1999.90;999.90;;;;;;;;;;5035728;28;20029;-83
2021/09/13 05:41:12;;;;;;;1999.90;999.90;;;;;;;;;;5035369;28;20112;-82
2021/09/13 05:43:38;;;;;;;1999.90;999.90;;;;;;;;;;5035415;28;20053;-84
2021/09/13 05:46:04;;;;;;;1999.90;999.90;;;;;;;;;;5035480;28;20461;-83
2021/09/13 05:48:30;;;;;;;1999.90;999.90;;;;;;;;;;5035159;28;20059;-83
2021/09/13 05:50:56;;;;;;;1999.90;999.90;;;;;;;;;;5035561;28;20492;-83
2021/09/13 05:53:22;;;;;;;1999.90;999.90;;;;;;;;;;5036412;28;20021;-81
2021/09/13 05:55:48;;;;;;;1999.90;999.90;;;;;;;;;;5035350;28;20041;-82
2021/09/13 05:58:14;;;;;;;1999.90;999.90;;;;;;;;;;5035035;28;20025;-83
2021/09/13 06:00:40;;;;;;;1999.90;999.90;;;;;;;;;;5035129;28;20029;-82
2021/09/13 06:03:08;;;;;;;1999.90;999.90;;;;;;;;;;5034843;28;20018;-84
2021/09/13 06:05:34;;;;;;;1999.90;999.90;;;;;;;;;;5034816;28;20017;-84
2021/09/13 06:08:00;;;;;;;1999.90;999.90;;;;;;;;;;5034888;28;20045;-82
2021/09/13 06:10:26;;;;;;;1999.90;999.90;;;;;;;;;;5034897;28;20033;-83
2021/09/13 06:12:52;;;;;;;1999.90;999.90;;;;;;;;;;5034826;28;20428;-82
2021/09/13 06:15:18;;;;;;;1999.90;999.90;;;;;;;;;;5034777;28;20444;-82
2021/09/13 06:17:44;;;;;;;1999.90;999.90;;;;;;;;;;5036221;28;20028;-82
2021/09/13 06:20:11;;;;;;;1999.90;999.90;;;;;;;;;;5034596;28;20462;-84
2021/09/13 06:22:37;;;;;;;1999.90;999.90;;;;;;;;;;5035320;28;20578;-83
2021/09/13 06:25:03;;;;;;;1999.90;999.90;;;;;;;;;;5034354;28;20021;-84
2021/09/13 06:27:29;;;;;;;1999.90;999.90;;;;;;;;;;5034710;28;20029;-83
2021/09/13 06:29:55;;;;;;;1999.90;999.90;;;;;;;;;;5034629;28;20037;-83
2021/09/13 06:32:22;;;;;;;1999.90;999.90;;;;;;;;;;5034851;28;20029;-83
2021/09/13 06:34:48;;;;;;;1999.90;999.90;;;;;;;;;;5034069;28;20377;-87
2021/09/13 06:37:14;;;;;;;1999.90;999.90;;;;;;;;;;5034148;28;20021;-81
2021/09/13 06:39:40;;;;;;;1999.90;999.90;;;;;;;;;;5033727;28;20038;-81
2021/09/13 06:42:06;;;;;;;1999.90;999.90;;;;;;;;;;5033883;28;20124;-83
2021/09/13 06:44:32;;;;;;;1999.90;999.90;;;;;;;;;;5035050;28;20025;-81
2021/09/13 06:47:10;;;;;;;1999.90;999.90;;;;;;;;;;5033952;28;20021;-84
2021/09/13 06:49:36;;;;;;;1999.90;999.90;;;;;;;;;;5035081;28;20033;-80
2021/09/13 06:52:04;;;;;;;1999.90;999.90;;;;;;;;;;5034180;28;20022;-82
2021/09/13 06:54:30;;;;;;;1999.90;999.90;;;;;;;;;;5033870;28;20468;-82
2021/09/13 06:56:56;;;;;;;1999.90;999.90;;;;;;;;;;5022930;28;20022;-82
2021/09/13 06:59:23;;;;;;;1999.90;999.90;;;;;;;;;;5013574;28;20034;-84
2021/09/13 07:01:49;;;;;;;1999.90;999.90;;;;;;;;;;5013969;28;20027;-82
2021/09/13 07:04:15;;;;;;;1999.90;999.90;;;;;;;;;;5015621;28;20025;-83
2021/09/13 07:06:41;;;;;;;1999.90;999.90;;;;;;;;;;5013863;28;20363;-81
2021/09/13 07:09:07;;;;;;;1999.90;999.90;;;;;;;;;;5013720;28;20034;-82
2021/09/13 07:11:33;;;;;;;1999.90;999.90;;;;;;;;;;5013745;28;20014;-89
2021/09/13 07:13:59;;;;;;;1999.90;999.90;;;;;;;;;;5013934;28;20083;-85
2021/09/13 07:16:25;;;;;;;1999.90;999.90;;;;;;;;;;5013822;28;20050;-79
2021/09/13 07:18:51;;;;;;;1999.90;999.90;;;;;;;;;;5013973;28;20489;-81
2021/09/13 07:21:17;;;;;;;1999.90;999.90;;;;;;;;;;5013737;28;20444;-86
2021/09/13 07:23:44;;;;;;;1999.90;999.90;;;;;;;;;;5013829;28;20014;-83
2021/09/13 07:26:10;;;;;;;1999.90;999.90;;;;;;;;;;5013989;28;20029;-83
2021/09/13 07:28:36;;;;;;;1999.90;999.90;;;;;;;;;;5013821;28;20040;-83
2021/09/13 07:31:02;;;;;;;1999.90;999.90;;;;;;;;;;5014177;28;20061;-83
2021/09/13 07:33:28;;;;;;;1999.90;999.90;;;;;;;;;;5013877;28;20033;-85
2021/09/13 07:35:55;;;;;;;1999.90;999.90;;;;;;;;;;5013978;28;20058;-82
2021/09/13 07:38:21;;;;;;;1999.90;999.90;;;;;;;;;;5013353;28;20026;-83
2021/09/13 07:40:47;;;;;;;1999.90;999.90;;;;;;;;;;5013347;28;20041;-83
2021/09/13 07:43:13;;;;;;;1999.90;999.90;;;;;;;;;;5013346;28;20117;-83
2021/09/13 07:45:39;;;;;;;1999.90;999.90;;;;;;;;;;5014326;28;20026;-83
2021/09/13 07:48:05;;;;;;;1999.90;999.90;;;;;;;;;;5017850;28;20488;-83
2021/09/13 07:50:31;;;;;;;1999.90;999.90;;;;;;;;;;5018190;28;20095;-82
2021/09/13 07:52:58;;;;;;;1999.90;999.90;;;;;;;;;;5015575;28;20083;-84
2021/09/13 07:55:24;;;;;;;1999.90;999.90;;;;;;;;;;5013628;28;20038;-85
2021/09/13 07:57:50;;;;;;;1999.90;999.90;;;;;;;;;;5013539;28;20117;-85
2021/09/13 08:00:16;;;;;;;1999.90;999.90;;;;;;;;;;5013494;28;20038;-84
2021/09/13 08:02:43;;;;;;;1999.90;999.90;;;;;;;;;;5013405;28;20034;-84
2021/09/13 08:05:09;;;;;;;1999.90;999.90;;;;;;;;;;5013806;28;20118;-84
2021/09/13 08:07:35;;;;;;;1999.90;999.90;;;;;;;;;;5013562;28;20523;-84
2021/09/13 08:10:02;;;;;;;1999.90;999.90;;;;;;;;;;5013159;28;20088;-84
2021/09/13 08:12:28;;;;;;;1999.90;999.90;;;;;;;;;;5013682;28;20026;-84
2021/09/13 08:14:54;;;;;;;1999.90;999.90;;;;;;;;;;5014052;28;20029;-83
2021/09/13 08:17:20;;;;;;;1999.90;999.90;;;;;;;;;;5013893;28;20026;-83
2021/09/13 08:19:46;;;;;;;1999.90;999.90;;;;;;;;;;5014355;28;20125;-83
2021/09/13 08:22:12;;;;;;;1999.90;999.90;;;;;;;;;;5014167;28;20014;-83
2021/09/13 08:24:38;;;;;;;1999.90;999.90;;;;;;;;;;5013251;28;20596;-83
2021/09/13 08:27:05;;;;;;;1999.90;999.90;;;;;;;;;;5013461;28;20060;-83
2021/09/13 08:29:32;;;;;;;1999.90;999.90;;;;;;;;;;5013002;28;20045;-83
2021/09/13 08:31:58;;;;;;;1999.90;999.90;;;;;;;;;;5013108;28;20366;-82
2021/09/13 08:34:24;;;;;;;1999.90;999.90;;;;;;;;;;5013187;28;20026;-84
2021/09/13 08:36:50;;;;;;;1999.90;999.90;;;;;;;;;;5014388;28;20085;-85
2021/09/13 08:39:17;;;;;;;1999.90;999.90;;;;;;;;;;5013133;28;20037;-81
2021/09/13 08:41:43;;;;;;;1999.90;999.90;;;;;;;;;;5013085;28;20055;-83
2021/09/13 08:44:13;;;;;;;1999.90;999.90;;;;;;;;;;5012915;28;20026;-84
2021/09/13 08:46:47;;;;;;;1999.90;999.90;;;;;;;;;;5013302;28;20026;-83
2021/09/13 08:49:32;;;;;;;1999.90;999.90;;;;;;;;;;5013320;28;20034;-84
2021/09/13 08:51:59;;;;;;;1999.90;999.90;;;;;;;;;;5013963;28;20037;-85
2021/09/13 08:54:29;;;;;;;1999.90;999.90;;;;;;;;;;5013091;28;20037;-86
2021/09/13 08:56:59;;;;;;;1999.90;999.90;;;;;;;;;;5013832;28;20044;-86
2021/09/13 08:59:26;;;;;;;1999.90;999.90;;;;;;;;;;5017417;28;20057;-86
2021/09/13 09:01:53;;;;;;;1999.90;999.90;;;;;;;;;;5017081;28;20021;-86
2021/09/13 09:04:19;;;;;;;1999.90;999.90;;;;;;;;;;5016911;28;20026;-85
2021/09/13 09:06:46;;;;;;;1999.90;999.90;;;;;;;;;;5016491;28;20065;-86
2021/09/13 09:09:13;;;;;;;1999.90;999.90;;;;;;;;;;5016625;28;20034;-86
2021/09/13 09:11:56;;;;;;;1999.90;999.90;;;;;;;;;;5016829;28;20112;-85
2021/09/13 09:14:27;;;;;;;1999.90;999.90;;;;;;;;;;5016560;28;20030;-84
2021/09/13 09:16:57;;;;;;;1999.90;999.90;;;;;;;;;;5016292;28;20046;-84
2021/09/13 09:19:23;;;;;;;1999.90;999.90;;;;;;;;;;5016596;28;20034;-85
2021/09/13 09:21:49;;;;;;;1999.90;999.90;;;;;;;;;;5016246;28;20032;-84
2021/09/13 09:24:16;;;;;;;1999.90;999.90;;;;;;;;;;5016201;28;20018;-86
2021/09/13 09:26:59;;;;;;;1999.90;999.90;;;;;;;;;;5016209;28;20038;-85
2021/09/13 09:29:29;;;;;;;1999.90;999.90;;;;;;;;;;5016435;28;20124;-85
2021/09/13 09:31:57;;;;;;;1999.90;999.90;;;;;;;;;;5016166;28;20022;-85
2021/09/13 09:34:25;;;;;;;1999.90;999.90;;;;;;;;;;5015951;28;20030;-86
2021/09/13 09:37:06;;;;;;;1999.90;999.90;;;;;;;;;;5016212;28;20377;-87
2021/09/13 09:39:39;;;;;;;1999.90;999.90;;;;;;;;;;5016162;28;20030;-87
2021/09/13 09:42:06;;;;;;;1999.90;999.90;;;;;;;;;;5016114;28;20036;-86
2021/09/13 09:44:33;;;;;;;1999.90;999.90;;;;;;;;;;5016262;28;20021;-87
2021/09/13 09:47:04;;;;;;;1999.90;999.90;;;;;;;;;;5017001;28;20026;-84
2021/09/13 09:49:39;;;;;;;1999.90;999.90;;;;;;;;;;5015843;28;20041;-85
2021/09/13 09:52:05;;;;;;;1999.90;999.90;;;;;;;;;;5016050;28;20113;-88
2021/09/13 09:54:32;;;;;;;1999.90;999.90;;;;;;;;;;5016006;28;20436;-85
2021/09/13 09:57:00;;;;;;;1999.90;999.90;;;;;;;;;;5016101;28;20117;-88
2021/09/13 09:59:43;;;;;;;1999.90;999.90;;;;;;;;;;5015797;28;20573;-86
2021/09/13 10:02:19;;;;;;;1999.90;999.90;;;;;;;;;;5016609;28;20151;-85
2021/09/13 10:04:49;;;;;;;1999.90;999.90;;;;;;;;;;5015872;28;20377;-85
2021/09/13 10:07:16;;;;;;;1999.90;999.90;;;;;;;;;;5016920;28;20117;-84
2021/09/13 10:09:43;;;;;;;1999.90;999.90;;;;;;;;;;5015616;28;20038;-86
2021/09/13 10:12:10;;;;;;;1999.90;999.90;;;;;;;;;;5017412;28;20018;-81
2021/09/13 10:14:36;;;;;;;1999.90;999.90;;;;;;;;;;5000510;28;20034;-84
2021/09/13 10:17:05;;;;;;;1999.90;999.90;;;;;;;;;;5017483;28;20104;-84
2021/09/13 10:19:31;;;;;;;1999.90;999.90;;;;;;;;;;5017375;28;20037;-83
2021/09/13 10:21:57;;;;;;;1999.90;999.90;;;;;;;;;;5016656;28;20053;-83
2021/09/13 10:24:28;;;;;;;1999.90;999.90;;;;;;;;;;5016888;28;20029;-83
2021/09/13 10:26:57;;;;;;;1999.90;999.90;;;;;;;;;;5016361;28;20474;-83
2021/09/13 10:29:27;;;;;;;1999.90;999.90;;;;;;;;;;5015726;28;20096;-84
2021/09/13 10:31:53;;;;;;;1999.90;999.90;;;;;;;;;;5016036;28;20405;-85
2021/09/13 10:34:21;;;;;;;1999.90;999.90;;;;;;;;;;5018548;28;20021;-84
2021/09/13 10:36:59;;;;;;;1999.90;999.90;;;;;;;;;;5018152;28;20116;-85
2021/09/13 10:39:44;;;;;;;1999.90;999.90;;;;;;;;;;5018440;28;20071;-87
2021/09/13 10:42:10;;;;;;;1999.90;999.90;;;;;;;;;;5017258;28;20093;-84
2021/09/13 10:44:36;;;;;;;1999.90;999.90;;;;;;;;;;5018299;28;20531;-87
2021/09/13 10:47:06;;;;;;;1999.90;999.90;;;;;;;;;;5018312;28;20148;-87
2021/09/13 10:49:35;;;;;;;1999.90;999.90;;;;;;;;;;5018364;28;20084;-87
2021/09/13 10:52:20;;;;;;;1999.90;999.90;;;;;;;;;;5017545;28;20026;-86
2021/09/13 10:55:05;;;;;;;1999.90;999.90;;;;;;;;;;5017658;28;20030;-86
2021/09/13 10:57:50;;;;;;;1999.90;999.90;;;;;;;;;;5019893;28;20033;-83
2021/09/13 11:00:16;;;;;;;1999.90;999.90;;;;;;;;;;5015591;28;20026;-83
2021/09/13 11:02:42;;;;;;;1999.90;999.90;;;;;;;;;;5016910;28;20030;-86
2021/09/13 11:05:21;;;;;;;1999.90;999.90;;;;;;;;;;5016593;28;20026;-86
2021/09/13 11:08:06;;;;;;;1999.90;999.90;;;;;;;;;;5016879;28;20545;-88
2021/09/13 11:10:44;;;;;;;1999.90;999.90;;;;;;;;;;5018711;28;20072;-88
2021/09/13 11:13:10;;;;;;;1999.90;999.90;;;;;;;;;;5016306;28;20292;-84
2021/09/13 11:15:36;;;;;;;1999.90;999.90;;;;;;;;;;5016680;28;20037;-86
2021/09/13 11:18:02;;;;;;;1999.90;999.90;;;;;;;;;;5014982;28;20025;-86
2021/09/13 11:20:28;;;;;;;1999.90;999.90;;;;;;;;;;5016139;28;20030;-85
2021/09/13 11:22:54;;;;;;;1999.90;999.90;;;;;;;;;;5015901;28;20087;-82
2021/09/13 11:25:20;;;;;;;1999.90;999.90;;;;;;;;;;5016518;28;20493;-87
2021/09/13 11:27:59;;;;;;;1999.90;999.90;;;;;;;;;;5016064;28;20030;-84
2021/09/13 11:30:41;;;;;;;1999.90;999.90;;;;;;;;;;5015571;28;20490;-83
2021/09/13 11:33:08;;;;;;;1999.90;999.90;;;;;;;;;;5016060;28;20128;-85
2021/09/13 11:35:36;;;;;;;1999.90;999.90;;;;;;;;;;5019491;28;20470;-81
2021/09/13 11:38:02;;;;;;;1999.90;999.90;;;;;;;;;;5021794;28;20077;-86
2021/09/13 11:40:28;;;;;;;1999.90;999.90;;;;;;;;;;5027607;28;20104;-86
2021/09/13 11:42:54;;;;;;;1999.90;999.90;;;;;;;;;;5027883;28;20026;-83
2021/09/13 11:45:21;;;;;;;1999.90;999.90;;;;;;;;;;5019744;28;20481;-85
2021/09/13 11:47:47;;;;;;;1999.90;999.90;;;;;;;;;;5017575;28;20077;-85
2021/09/13 11:50:13;;;;;;;1999.90;999.90;;;;;;;;;;5015826;28;20402;-85
2021/09/13 11:52:40;;;;;;;1999.90;999.90;;;;;;;;;;5018295;28;20022;-86
2021/09/13 11:55:12;;;;;;;1999.90;999.90;;;;;;;;;;5020238;28;20022;-88
2021/09/13 11:57:41;;;;;;;1999.90;999.90;;;;;;;;;;5019632;28;20022;-86
2021/09/13 12:00:12;;;;;;;1999.90;999.90;;;;;;;;;;5018808;28;20018;-88
2021/09/13 12:02:44;;;;;;;1999.90;999.90;;;;;;;;;;5020282;28;20032;-89
2021/09/13 12:05:17;;;;;;;1999.90;999.90;;;;;;;;;;5021200;28;20029;-88
2021/09/13 12:07:44;;;;;;;1999.90;999.90;;;;;;;;;;5018867;28;20030;-86
2021/09/13 12:10:11;;;;;;;1999.90;999.90;;;;;;;;;;5017096;28;20068;-84
2021/09/13 12:12:41;;;;;;;1999.90;999.90;;;;;;;;;;5018889;28;20018;-84
2021/09/13 12:15:08;;;;;;;1999.90;999.90;;;;;;;;;;5018288;28;20124;-85
2021/09/13 12:17:35;;;;;;;1999.90;999.90;;;;;;;;;;5019672;28;20393;-85
2021/09/13 12:20:28;;;;;;;1999.90;999.90;;;;;;;;;;5016177;28;20049;-89
2021/09/13 12:23:02;;;;;;;1999.90;999.90;;;;;;;;;;5012224;28;20481;-87
2021/09/13 12:25:29;;;;;;;1999.90;999.90;;;;;;;;;;5013460;28;20032;-83
2021/09/13 12:27:59;;;;;;;1999.90;999.90;;;;;;;;;;5013340;28;20061;-82
2021/09/13 12:30:27;;;;;;;1999.90;999.90;;;;;;;;;;5013149;28;20061;-84
2021/09/13 12:32:55;;;;;;;1999.90;999.90;;;;;;;;;;5019760;28;20469;-86
2021/09/13 12:35:40;;;;;;;1999.90;999.90;;;;;;;;;;5019879;28;20026;-86
2021/09/13 12:38:09;;;;;;;1999.90;999.90;;;;;;;;;;5019456;28;20358;-87
2021/09/13 12:40:49;;;;;;;1999.90;999.90;;;;;;;;;;5028624;28;20026;-85
2021/09/13 12:43:19;;;;;;;1999.90;999.90;;;;;;;;;;5024213;28;20030;-83
2021/09/13 12:45:46;;;;;;;1999.90;999.90;;;;;;;;;;5024426;28;20018;-83
2021/09/13 12:48:22;;;;;;;1999.90;999.90;;;;;;;;;;5026273;28;20097;-81
2021/09/13 12:50:53;;;;;;;1999.90;999.90;;;;;;;;;;5026804;28;20037;-81
2021/09/13 12:53:21;;;;;;;1999.90;999.90;;;;;;;;;;5008479;28;20034;-80
2021/09/13 12:55:47;;;;;;;1999.90;999.90;;;;;;;;;;5025918;28;20068;-82
2021/09/13 12:58:26;;;;;;;1999.90;999.90;;;;;;;;;;5025800;28;20057;-86
2021/09/13 13:00:53;;;;;;;1999.90;999.90;;;;;;;;;;5025779;28;20030;-86
2021/09/13 13:03:19;;;;;;;1999.90;999.90;;;;;;;;;;5022357;28;20026;-82
2021/09/13 13:05:49;;;;;;;1999.90;999.90;;;;;;;;;;5021111;28;20117;-82
2021/09/13 13:08:16;;;;;;;1999.90;999.90;;;;;;;;;;5021221;28;20057;-86
2021/09/13 13:10:42;;;;;;;1999.90;999.90;;;;;;;;;;5020540;28;20068;-87
2021/09/13 13:13:08;;;;;;;1999.90;999.90;;;;;;;;;;5020774;28;20389;-85
2021/09/13 13:15:34;;;;;;;1999.90;999.90;;;;;;;;;;5005509;28;20057;-87
2021/09/13 13:18:00;;;;;;;1999.90;999.90;;;;;;;;;;5021552;28;20026;-84
2021/09/13 13:20:27;;;;;;;1999.90;999.90;;;;;;;;;;5020783;28;20029;-82
2021/09/13 13:22:54;;;;;;;1999.90;999.90;;;;;;;;;;5021009;28;20065;-86
2021/09/13 13:25:20;;;;;;;1999.90;999.90;;;;;;;;;;5019908;28;20461;-84
2021/09/13 13:27:46;;;;;;;1999.90;999.90;;;;;;;;;;5020652;28;20022;-85
2021/09/13 13:30:12;;;;;;;1999.90;999.90;;;;;;;;;;5022067;28;20026;-87
2021/09/13 13:32:39;;;;;;;1999.90;999.90;;;;;;;;;;5021481;28;20038;-85
2021/09/13 13:35:05;;;;;;;1999.90;999.90;;;;;;;;;;5020312;28;20064;-83
2021/09/13 13:37:31;;;;;;;1999.90;999.90;;;;;;;;;;5020497;28;20098;-82
2021/09/13 13:39:57;;;;;;;1999.90;999.90;;;;;;;;;;5019904;28;20370;-84
2021/09/13 13:42:23;;;;;;;1999.90;999.90;;;;;;;;;;5018746;28;20049;-84
2021/09/13 13:44:51;;;;;;;1999.90;999.90;;;;;;;;;;5016503;28;20025;-86
2021/09/13 13:47:17;;;;;;;1999.90;999.90;;;;;;;;;;5017582;28;20030;-84